createdAt,value
2018-09-27T00:01:12.134Z,68.73
2018-09-27T00:03:41.382Z,69.47
2018-09-27T00:06:10.952Z,68.79
2018-09-27T00:08:40.308Z,68.87
2018-09-27T00:11:09.604Z,69.02
2018-09-27T00:13:38.936Z,68.79
2018-09-27T00:16:08.205Z,68.37
2018-09-27T00:18:37.506Z,69.37
2018-09-27T00:21:06.785Z,68.66
2018-09-27T00:23:36.065Z,69.20
2018-09-27T00:26:05.355Z,68.48
2018-09-27T00:28:34.570Z,68.62
2018-09-27T00:31:03.853Z,69.01
2018-09-27T00:33:33.093Z,68.86
2018-09-27T00:36:02.313Z,68.74
2018-09-27T00:38:31.600Z,68.13
2018-09-27T00:41:00.877Z,68.52
2018-09-27T00:43:30.129Z,68.52
2018-09-27T00:45:59.438Z,68.67
2018-09-27T00:48:29.410Z,68.83
2018-09-27T00:50:58.687Z,68.71
2018-09-27T00:53:27.945Z,68.72
2018-09-27T00:55:57.292Z,68.72
2018-09-27T00:58:26.510Z,68.86
2018-09-27T01:00:55.964Z,68.55
2018-09-27T01:03:25.245Z,68.23
2018-09-27T01:05:54.753Z,68.42
2018-09-27T01:08:24.217Z,68.79
2018-09-27T01:10:53.469Z,68.95
2018-09-27T01:13:23.935Z,68.24
2018-09-27T01:15:53.349Z,68.88
2018-09-27T01:18:22.644Z,68.88
2018-09-27T01:20:51.934Z,68.96
2018-09-27T01:23:21.163Z,68.83
2018-09-27T01:25:50.445Z,69.15
2018-09-27T01:28:19.729Z,69.19
2018-09-27T01:30:48.980Z,69.24
2018-09-27T01:33:18.347Z,68.79
2018-09-27T01:35:47.769Z,68.94
2018-09-27T01:38:17.166Z,69.14
2018-09-27T01:40:46.474Z,68.66
2018-09-27T01:48:13.691Z,68.66
2018-09-27T01:50:43.021Z,68.82
2018-09-27T01:53:12.330Z,69.09
2018-09-27T01:55:41.689Z,69.31
2018-09-27T01:58:11.024Z,69.35
2018-09-27T02:00:40.509Z,69.35
2018-09-27T02:03:09.818Z,69.41
2018-09-27T02:05:39.160Z,69.09
2018-09-27T02:08:08.415Z,69.51
2018-09-27T02:10:37.710Z,69.30
2018-09-27T02:13:07.141Z,69.34
2018-09-27T02:15:36.498Z,69.20
2018-09-27T02:18:05.777Z,69.81
2018-09-27T02:20:35.097Z,69.32
2018-09-27T02:23:04.499Z,69.36
2018-09-27T02:25:33.738Z,69.48
2018-09-27T02:28:03.010Z,69.44
2018-09-27T02:30:32.361Z,69.57
2018-09-27T02:33:01.661Z,70.05
2018-09-27T02:35:30.997Z,70.19
2018-09-27T02:38:00.301Z,69.76
2018-09-27T02:40:29.646Z,70.35
2018-09-27T02:42:58.929Z,70.33
2018-09-27T02:45:28.231Z,70.50
2018-09-27T02:47:57.508Z,70.55
2018-09-27T02:50:27.117Z,70.56
2018-09-27T02:52:56.282Z,70.61
2018-09-27T02:55:25.736Z,70.72
2018-09-27T02:57:55.280Z,71.12
2018-09-27T03:00:25.624Z,71.09
2018-09-27T03:02:54.900Z,70.59
2018-09-27T03:05:25.174Z,71.12
2018-09-27T03:07:54.460Z,71.28
2018-09-27T03:10:23.678Z,71.55
2018-09-27T03:12:53.879Z,71.71
2018-09-27T03:15:23.182Z,71.82
2018-09-27T03:17:52.477Z,71.80
2018-09-27T03:20:21.843Z,71.27
2018-09-27T03:22:51.436Z,71.39
2018-09-27T03:25:20.722Z,72.25
2018-09-27T03:27:50.194Z,72.09
2018-09-27T03:30:19.580Z,72.52
2018-09-27T03:32:48.829Z,72.45
2018-09-27T03:35:18.153Z,72.91
2018-09-27T03:37:47.390Z,73.03
2018-09-27T03:40:16.971Z,73.14
2018-09-27T03:42:46.213Z,73.24
2018-09-27T03:45:15.416Z,73.83
2018-09-27T03:47:44.645Z,73.45
2018-09-27T03:50:14.282Z,73.33
2018-09-27T03:52:43.568Z,73.98
2018-09-27T03:55:12.942Z,74.13
2018-09-27T03:57:42.320Z,74.35
2018-09-27T04:00:11.673Z,74.29
2018-09-27T04:02:41.156Z,74.18
2018-09-27T04:05:12.605Z,74.57
2018-09-27T04:07:42.107Z,75.07
2018-09-27T04:10:11.583Z,74.33
2018-09-27T04:12:41.058Z,74.73
2018-09-27T04:15:11.796Z,74.99
2018-09-27T04:17:42.533Z,75.07
2018-09-27T04:20:13.475Z,74.97
2018-09-27T04:22:42.869Z,75.23
2018-09-27T04:25:12.640Z,75.54
2018-09-27T04:27:42.213Z,75.53
2018-09-27T04:30:11.762Z,75.69
2018-09-27T04:32:41.327Z,75.40
2018-09-27T04:35:10.729Z,75.30
2018-09-27T04:37:40.164Z,76.11
2018-09-27T04:40:09.567Z,75.71
2018-09-27T04:42:41.392Z,75.88
2018-09-27T04:45:11.140Z,76.12
2018-09-27T04:47:40.822Z,76.24
2018-09-27T04:50:10.408Z,76.46
2018-09-27T04:52:40.394Z,76.69
2018-09-27T04:55:10.306Z,76.19
2018-09-27T04:57:39.843Z,76.47
2018-09-27T05:00:09.441Z,76.71
2018-09-27T05:02:39.334Z,76.59
2018-09-27T05:05:09.011Z,76.82
2018-09-27T05:07:38.539Z,76.75
2018-09-27T05:10:08.382Z,76.71
2018-09-27T05:12:38.108Z,76.94
2018-09-27T05:15:07.392Z,77.39
2018-09-27T05:17:37.134Z,77.13
2018-09-27T05:20:06.698Z,77.62
2018-09-27T05:22:36.054Z,77.60
2018-09-27T05:25:05.478Z,77.39
2018-09-27T05:27:34.958Z,77.58
2018-09-27T05:30:04.552Z,77.91
2018-09-27T05:32:34.293Z,77.58
2018-09-27T05:35:03.793Z,78.02
2018-09-27T05:37:33.569Z,77.86
2018-09-27T05:40:03.285Z,77.93
2018-09-27T05:42:32.661Z,77.98
2018-09-27T05:45:06.934Z,78.06
2018-09-27T05:47:36.442Z,78.16
2018-09-27T05:50:06.937Z,78.00
2018-09-27T05:52:36.604Z,78.38
2018-09-27T05:55:06.980Z,77.98
2018-09-27T05:57:36.688Z,78.08
2018-09-27T06:00:06.162Z,78.22
2018-09-27T06:02:36.967Z,78.65
2018-09-27T06:05:06.703Z,78.44
2018-09-27T06:07:36.157Z,78.65
2018-09-27T06:10:08.287Z,78.34
2018-09-27T06:12:37.845Z,78.98
2018-09-27T06:15:09.601Z,78.70
2018-09-27T06:17:39.201Z,79.05
2018-09-27T06:20:09.634Z,78.74
2018-09-27T06:22:39.063Z,78.37
2018-09-27T06:25:08.478Z,78.62
2018-09-27T06:27:39.104Z,78.41
2018-09-27T06:30:08.969Z,79.01
2018-09-27T06:32:38.483Z,78.40
2018-09-27T06:35:07.930Z,78.68
2018-09-27T06:37:37.423Z,78.59
2018-09-27T06:40:06.932Z,78.63
2018-09-27T06:42:37.612Z,78.21
2018-09-27T06:45:07.960Z,78.62
2018-09-27T06:47:37.403Z,78.32
2018-09-27T06:50:07.241Z,78.35
2018-09-27T06:52:36.488Z,78.09
2018-09-27T06:55:06.312Z,77.87
2018-09-27T06:57:35.721Z,77.73
2018-09-27T07:00:05.126Z,78.17
2018-09-27T07:02:34.620Z,77.75
2018-09-27T07:05:03.937Z,77.58
2018-09-27T07:07:33.182Z,77.77
2018-09-27T07:10:02.429Z,77.66
2018-09-27T07:12:33.938Z,77.73
2018-09-27T07:15:03.202Z,77.40
2018-09-27T07:17:32.848Z,76.83
2018-09-27T07:20:02.460Z,77.47
2018-09-27T07:22:31.746Z,77.03
2018-09-27T07:25:01.499Z,76.38
2018-09-27T07:27:30.872Z,76.58
2018-09-27T07:30:00.236Z,76.33
2018-09-27T07:32:29.618Z,76.88
2018-09-27T07:34:58.921Z,76.25
2018-09-27T07:37:28.489Z,76.34
2018-09-27T07:39:57.997Z,76.27
2018-09-27T07:42:31.327Z,76.19
2018-09-27T07:45:00.521Z,75.89
2018-09-27T07:47:29.684Z,75.50
2018-09-27T07:49:59.192Z,75.83
2018-09-27T07:52:28.302Z,75.73
2018-09-27T07:54:57.561Z,75.59
2018-09-27T07:57:26.852Z,75.60
2018-09-27T07:59:56.048Z,75.04
2018-09-27T08:02:25.219Z,75.17
2018-09-27T08:04:54.404Z,75.31
2018-09-27T08:07:23.577Z,74.65
2018-09-27T08:09:52.724Z,74.54
2018-09-27T08:12:21.885Z,74.85
2018-09-27T08:14:51.028Z,74.03
2018-09-27T08:17:20.741Z,73.79
2018-09-27T08:19:49.869Z,73.97
2018-09-27T08:22:19.093Z,74.03
2018-09-27T08:24:48.312Z,72.97
2018-09-27T08:27:17.460Z,73.87
2018-09-27T08:29:46.613Z,73.63
2018-09-27T08:32:15.844Z,73.73
2018-09-27T08:34:45.061Z,73.33
2018-09-27T08:37:14.204Z,73.82
2018-09-27T08:39:43.378Z,72.86
2018-09-27T08:42:12.585Z,72.79
2018-09-27T08:44:41.911Z,73.24
2018-09-27T08:47:10.920Z,73.51
2018-09-27T08:49:40.105Z,73.58
2018-09-27T08:52:09.272Z,72.91
2018-09-27T08:54:38.639Z,72.47
2018-09-27T08:57:07.795Z,72.57
2018-09-27T08:59:36.888Z,72.80
2018-09-27T09:02:06.164Z,72.58
2018-09-27T09:04:35.292Z,72.09
2018-09-27T09:07:04.493Z,72.71
2018-09-27T09:09:33.650Z,72.66
2018-09-27T09:12:02.987Z,73.12
2018-09-27T09:14:32.068Z,72.65
2018-09-27T09:17:01.198Z,71.80
2018-09-27T09:19:30.364Z,72.07
2018-09-27T09:21:59.491Z,72.22
2018-09-27T09:24:28.677Z,71.79
2018-09-27T09:26:57.901Z,72.11
2018-09-27T09:29:27.746Z,71.28
2018-09-27T09:31:57.645Z,71.11
2018-09-27T09:34:30.605Z,71.22
2018-09-27T09:37:00.425Z,71.49
2018-09-27T09:39:31.438Z,71.29
2018-09-27T09:42:02.581Z,70.94
2018-09-27T09:44:32.051Z,70.54
2018-09-27T09:47:01.412Z,69.62
2018-09-27T09:49:31.333Z,69.81
2018-09-27T09:52:01.446Z,70.76
2018-09-27T09:54:35.404Z,69.89
2018-09-27T09:59:49.175Z,69.69
2018-09-27T10:02:19.209Z,68.98
2018-09-27T10:04:48.972Z,68.57
2018-09-27T10:07:18.136Z,68.50
2018-09-27T10:09:47.706Z,68.32
2018-09-27T10:12:16.980Z,68.05
2018-09-27T10:14:46.137Z,68.02
2018-09-27T10:17:15.300Z,67.70
2018-09-27T10:19:44.456Z,67.59
2018-09-27T10:22:13.695Z,67.42
2018-09-27T10:24:42.839Z,67.02
2018-09-27T10:27:12.099Z,66.90
2018-09-27T10:29:41.263Z,66.07
2018-09-27T10:32:10.415Z,66.06
2018-09-27T10:34:39.692Z,64.90
2018-09-27T10:37:08.812Z,65.49
2018-09-27T10:39:38.640Z,65.13
2018-09-27T10:42:07.880Z,63.46
2018-09-27T10:44:37.036Z,63.10
2018-09-27T10:47:06.554Z,62.48
2018-09-27T10:49:35.688Z,62.69
2018-09-27T10:52:04.859Z,63.40
2018-09-27T10:54:34.027Z,62.83
2018-09-27T10:57:03.244Z,62.26
2018-09-27T10:59:32.386Z,62.24
2018-09-27T11:02:01.665Z,62.58
2018-09-27T11:04:30.827Z,61.98
2018-09-27T11:06:59.964Z,62.45
2018-09-27T11:09:29.672Z,61.56
2018-09-27T11:11:58.873Z,61.46
2018-09-27T11:14:28.053Z,61.46
2018-09-27T11:16:57.260Z,60.75
2018-09-27T11:19:26.793Z,60.09
2018-09-27T11:21:56.029Z,60.01
2018-09-27T11:24:25.183Z,60.17
2018-09-27T11:26:54.704Z,59.42
2018-09-27T11:29:29.215Z,59.66
2018-09-27T11:32:03.859Z,59.34
2018-09-27T11:34:32.982Z,59.84
2018-09-27T11:37:02.110Z,60.16
2018-09-27T11:39:31.292Z,59.34
2018-09-27T11:42:00.457Z,59.43
2018-09-27T11:44:29.668Z,58.94
2018-09-27T11:46:58.797Z,58.39
2018-09-27T11:49:28.002Z,58.83
2018-09-27T11:51:57.912Z,58.10
2018-09-27T11:54:27.056Z,57.57
2018-09-27T11:56:56.552Z,57.63
2018-09-27T11:59:25.729Z,57.25
2018-09-27T12:01:54.939Z,57.52
2018-09-27T12:04:24.123Z,58.10
2018-09-27T12:06:53.374Z,56.90
2018-09-27T12:09:22.514Z,57.98
2018-09-27T12:11:51.685Z,57.20
2018-09-27T12:14:21.494Z,56.96
2018-09-27T12:16:50.664Z,56.71
2018-09-27T12:19:19.810Z,56.92
2018-09-27T12:21:49.000Z,56.23
2018-09-27T12:24:18.196Z,55.48
2018-09-27T12:26:47.373Z,56.74
2018-09-27T12:29:16.906Z,55.11
2018-09-27T12:31:46.114Z,54.87
2018-09-27T12:34:15.388Z,55.70
2018-09-27T12:36:44.670Z,55.77
2018-09-27T12:39:13.739Z,55.61
2018-09-27T12:41:42.897Z,56.03
2018-09-27T12:44:12.106Z,55.65
2018-09-27T12:46:41.280Z,55.54
2018-09-27T12:49:10.411Z,55.48
2018-09-27T12:51:39.741Z,55.51
2018-09-27T12:54:08.776Z,55.22
2018-09-27T12:56:37.951Z,54.79
2018-09-27T12:59:07.253Z,54.43
2018-09-27T13:01:36.448Z,54.95
2018-09-27T13:04:05.700Z,55.02
2018-09-27T13:06:34.937Z,55.01
2018-09-27T13:09:06.230Z,55.96
2018-09-27T13:11:35.320Z,55.94
2018-09-27T13:16:04.305Z,54.37
2018-09-27T13:18:33.419Z,56.09
2018-09-27T13:21:02.601Z,54.93
2018-09-27T13:23:31.768Z,55.81
2018-09-27T13:26:01.234Z,55.84
2018-09-27T13:28:30.781Z,55.13
2018-09-27T13:30:59.915Z,55.05
2018-09-27T13:33:29.035Z,56.61
2018-09-27T13:35:58.208Z,56.57
2018-09-27T13:38:27.353Z,56.99
2018-09-27T13:40:56.648Z,57.51
2018-09-27T13:43:25.810Z,58.58
2018-09-27T13:45:54.972Z,59.48
2018-09-27T13:48:24.113Z,60.12
2018-09-27T13:50:53.322Z,59.34
2018-09-27T13:53:22.616Z,59.61
2018-09-27T13:55:51.776Z,59.91
2018-09-27T13:58:21.755Z,59.59
2018-09-27T14:00:50.942Z,59.23
2018-09-27T14:03:20.052Z,59.14
2018-09-27T14:05:49.228Z,58.99
2018-09-27T14:08:18.347Z,59.55
2018-09-27T14:10:47.524Z,58.87
2018-09-27T14:13:16.675Z,57.33
2018-09-27T14:15:45.849Z,57.93
2018-09-27T14:18:15.014Z,57.57
2018-09-27T14:20:44.148Z,57.30
2018-09-27T14:23:13.325Z,56.14
2018-09-27T14:25:42.538Z,56.37
2018-09-27T14:28:11.880Z,55.74
2018-09-27T14:30:41.037Z,56.45
2018-09-27T14:33:10.148Z,55.34
2018-09-27T14:35:39.391Z,55.71
2018-09-27T14:38:08.636Z,55.44
2018-09-27T14:40:37.792Z,55.40
2018-09-27T14:43:07.295Z,55.96
2018-09-27T14:45:36.468Z,55.44
2018-09-27T14:48:05.692Z,55.28
2018-09-27T14:50:34.785Z,55.27
2018-09-27T14:53:03.940Z,55.95
2018-09-27T14:55:33.150Z,56.62
2018-09-27T14:58:02.348Z,56.08
2018-09-27T15:00:31.550Z,55.02
2018-09-27T15:03:00.701Z,55.58
2018-09-27T15:05:29.899Z,54.67
2018-09-27T15:07:59.276Z,55.07
2018-09-27T15:10:28.509Z,54.78
2018-09-27T15:12:57.617Z,55.65
2018-09-27T15:15:26.939Z,56.45
2018-09-27T15:17:56.356Z,56.10
2018-09-27T15:20:25.567Z,55.75
2018-09-27T15:22:54.802Z,56.13
2018-09-27T15:25:24.874Z,56.79
2018-09-27T15:27:54.018Z,56.38
2018-09-27T15:30:23.230Z,56.49
2018-09-27T15:32:52.466Z,55.64
2018-09-27T15:35:21.608Z,56.54
2018-09-27T15:37:51.259Z,56.89
2018-09-27T15:40:20.944Z,56.81
2018-09-27T15:42:50.142Z,56.66
2018-09-27T15:45:19.408Z,57.43
2018-09-27T15:47:48.612Z,57.00
2018-09-27T15:50:17.925Z,58.05
2018-09-27T15:52:47.098Z,56.80
2018-09-27T15:55:16.364Z,56.93
2018-09-27T15:57:45.633Z,57.83
2018-09-27T16:00:14.876Z,56.48
2018-09-27T16:02:44.012Z,57.19
2018-09-27T16:05:13.190Z,57.15
2018-09-27T16:07:42.461Z,57.48
2018-09-27T16:10:11.768Z,57.35
2018-09-27T16:12:40.954Z,57.30
2018-09-27T16:15:10.293Z,57.29
2018-09-27T16:17:39.653Z,57.45
2018-09-27T16:20:08.787Z,57.60
2018-09-27T16:22:38.174Z,57.98
2018-09-27T16:25:07.965Z,57.84
2018-09-27T16:27:37.458Z,57.57
2018-09-27T16:30:07.303Z,56.94
2018-09-27T16:32:36.632Z,57.41
2018-09-27T16:35:06.113Z,57.59
2018-09-27T16:37:35.425Z,57.49
2018-09-27T16:40:05.235Z,58.35
2018-09-27T16:42:34.444Z,58.15
2018-09-27T16:45:03.608Z,57.73
2018-09-27T16:47:32.954Z,58.47
2018-09-27T16:50:02.397Z,60.05
2018-09-27T16:52:32.156Z,59.77
2018-09-27T16:55:02.894Z,60.98
2018-09-27T16:57:32.104Z,61.29
2018-09-27T17:00:01.285Z,62.25
2018-09-27T17:02:30.474Z,61.91
2018-09-27T17:04:59.652Z,62.61
2018-09-27T17:07:28.895Z,62.33
2018-09-27T17:09:58.143Z,63.91
2018-09-27T17:12:27.309Z,63.83
2018-09-27T17:14:56.592Z,64.94
2018-09-27T17:17:25.778Z,64.93
2018-09-27T17:19:55.216Z,65.54
2018-09-27T17:22:24.397Z,65.78
2018-09-27T17:24:54.564Z,66.40
2018-09-27T17:27:23.729Z,66.93
2018-09-27T17:29:52.908Z,67.78
2018-09-27T17:32:22.152Z,67.95
2018-09-27T17:34:51.357Z,68.31
2018-09-27T17:37:20.501Z,68.66
2018-09-27T17:39:49.717Z,69.07
2018-09-27T17:42:18.955Z,69.65
2018-09-27T17:44:48.154Z,69.76
2018-09-27T17:47:17.292Z,69.62
2018-09-27T17:49:46.546Z,70.22
2018-09-27T17:52:15.676Z,70.92
2018-09-27T17:54:45.708Z,70.82
2018-09-27T17:57:18.101Z,70.70
2018-09-27T17:59:47.308Z,71.33
2018-09-27T18:02:16.440Z,71.35
2018-09-27T18:04:45.649Z,71.78
2018-09-27T18:07:14.802Z,71.32
2018-09-27T18:09:43.977Z,71.60
2018-09-27T18:12:13.131Z,71.15
2018-09-27T18:14:42.276Z,70.63
2018-09-27T18:17:11.649Z,70.15
2018-09-27T18:19:40.837Z,70.27
2018-09-27T18:22:10.057Z,70.27
2018-09-27T18:24:39.248Z,69.28
2018-09-27T18:27:08.440Z,68.06
2018-09-27T18:29:37.632Z,68.34
2018-09-27T18:32:06.799Z,68.03
2018-09-27T18:34:36.016Z,68.18
2018-09-27T18:37:05.128Z,68.23
2018-09-27T18:39:34.323Z,68.08
2018-09-27T18:42:03.501Z,68.36
2018-09-27T18:44:32.676Z,67.85
2018-09-27T18:47:02.084Z,67.04
2018-09-27T18:49:31.229Z,66.99
2018-09-27T18:52:00.487Z,66.67
2018-09-27T18:54:29.624Z,67.12
2018-09-27T18:56:58.824Z,67.10
2018-09-27T18:59:28.347Z,68.70
2018-09-27T19:01:58.006Z,67.89
2018-09-27T19:04:27.734Z,67.41
2018-09-27T19:06:57.097Z,67.27
2018-09-27T19:09:26.333Z,67.30
2018-09-27T19:11:56.698Z,67.72
2018-09-27T19:14:25.993Z,67.24
2018-09-27T19:16:55.368Z,67.56
2018-09-27T19:19:24.646Z,66.70
2018-09-27T19:21:53.925Z,65.59
2018-09-27T19:24:23.188Z,64.38
2018-09-27T19:26:52.455Z,65.18
2018-09-27T19:29:21.751Z,65.32
2018-09-27T19:31:51.143Z,65.67
2018-09-27T19:34:20.416Z,64.68
2018-09-27T19:36:49.665Z,65.27
2018-09-27T19:39:18.972Z,65.92
2018-09-27T19:41:48.382Z,67.62
2018-09-27T19:44:17.629Z,67.33
2018-09-27T19:46:47.103Z,67.29
2018-09-27T19:49:16.370Z,68.82
2018-09-27T19:51:51.204Z,69.08
2018-09-27T19:54:20.494Z,69.41
2018-09-27T19:56:49.840Z,69.51
2018-09-27T19:59:19.109Z,69.54
2018-09-27T20:01:48.510Z,69.92
2018-09-27T20:04:17.912Z,70.10
2018-09-27T20:06:47.717Z,70.40
2018-09-27T20:09:16.985Z,69.65
2018-09-27T20:11:46.290Z,70.16
2018-09-27T20:14:15.407Z,70.31
2018-09-27T20:16:44.993Z,70.47
2018-09-27T20:19:14.901Z,70.22
2018-09-27T20:22:12.060Z,69.83
2018-09-27T20:24:42.943Z,70.38
2018-09-27T20:27:12.871Z,68.92
2018-09-27T20:29:42.254Z,69.10
2018-09-27T20:32:11.548Z,68.04
2018-09-27T20:34:40.839Z,69.07
2018-09-27T20:37:10.628Z,68.48
2018-09-27T20:39:39.876Z,68.99
2018-09-27T20:42:09.207Z,69.01
2018-09-27T20:44:38.425Z,68.48
2018-09-27T20:47:07.709Z,68.10
2018-09-27T20:49:37.142Z,67.80
2018-09-27T20:52:06.929Z,67.21
2018-09-27T20:54:36.191Z,67.14
2018-09-27T20:57:05.382Z,67.09
2018-09-27T20:59:35.673Z,66.94
2018-09-27T21:02:04.871Z,67.67
2018-09-27T21:04:34.017Z,68.96
2018-09-27T21:07:03.201Z,69.54
2018-09-27T21:09:32.447Z,70.10
2018-09-27T21:12:01.605Z,70.22
2018-09-27T21:14:30.827Z,70.21
2018-09-27T21:17:00.036Z,70.22
2018-09-27T21:19:29.274Z,69.43
2018-09-27T21:21:58.440Z,69.78
2018-09-27T21:24:27.580Z,69.52
2018-09-27T21:26:56.782Z,69.10
2018-09-27T21:29:25.991Z,69.64
2018-09-27T21:31:55.176Z,71.33
2018-09-27T21:34:24.425Z,71.46
2018-09-27T21:36:53.617Z,71.42
2018-09-27T21:39:23.093Z,71.51
2018-09-27T21:41:52.221Z,71.38
2018-09-27T21:44:21.478Z,70.89
2018-09-27T21:46:50.697Z,71.47
2018-09-27T21:49:19.940Z,71.66
2018-09-27T21:51:49.264Z,71.33
2018-09-27T21:54:18.517Z,71.47
2018-09-27T21:56:47.756Z,71.14
2018-09-27T21:59:18.042Z,70.71
2018-09-27T22:01:47.508Z,70.42
2018-09-27T22:04:16.814Z,69.79
2018-09-27T22:06:48.432Z,69.56
2018-09-27T22:09:17.673Z,70.69
2018-09-27T22:11:46.874Z,71.47
2018-09-27T22:14:16.053Z,71.26
2018-09-27T22:16:45.671Z,70.40
2018-09-27T22:19:14.908Z,70.03
2018-09-27T22:21:44.174Z,68.91
2018-09-27T22:24:13.363Z,68.96
2018-09-27T22:26:42.600Z,67.70
2018-09-27T22:29:11.811Z,66.67
2018-09-27T22:31:41.455Z,66.11
2018-09-27T22:34:10.686Z,66.18
2018-09-27T22:36:39.902Z,65.72
2018-09-27T22:39:09.610Z,65.35
2018-09-27T22:41:38.820Z,65.07
2018-09-27T22:44:08.127Z,65.62
2018-09-27T22:46:37.323Z,66.29
2018-09-27T22:49:06.509Z,66.36
2018-09-27T22:51:35.706Z,65.21
2018-09-27T22:54:04.918Z,64.81
2018-09-27T22:56:34.089Z,64.47
2018-09-27T22:59:03.358Z,64.43
2018-09-27T23:01:32.548Z,64.15
2018-09-27T23:04:01.778Z,64.36
2018-09-27T23:06:30.970Z,64.19
2018-09-27T23:09:00.141Z,63.60
2018-09-27T23:11:33.404Z,62.99
2018-09-27T23:14:04.213Z,63.11
2018-09-27T23:16:33.406Z,63.38
2018-09-27T23:19:02.807Z,62.34
2018-09-27T23:21:32.011Z,62.35
2018-09-27T23:24:01.189Z,61.61
2018-09-27T23:26:30.345Z,61.22
2018-09-27T23:28:59.546Z,61.34
2018-09-27T23:31:29.101Z,61.29
2018-09-27T23:33:58.299Z,61.12
2018-09-27T23:36:27.476Z,61.36
2018-09-27T23:38:56.682Z,61.25
2018-09-27T23:41:25.889Z,61.67
2018-09-27T23:43:55.118Z,62.62
2018-09-27T23:46:24.350Z,63.45
2018-09-27T23:48:53.529Z,64.45
2018-09-27T23:51:22.889Z,66.15
2018-09-27T23:53:52.160Z,67.14
2018-09-27T23:56:21.347Z,68.18
2018-09-27T23:58:50.550Z,68.75
